Attleborough, United Kingdom
Current Conditions -  °F | °C
As of 10:50 AM on Wednesday 22 Oct 2014 (Local Time) from EGSH Reporting Station
Scattered Clouds Scattered Clouds  
Wind Chill: 11°   Ceiling: Unl
Heat Index: 11°   Visibility: 6mi
Dew Point:   Wind: 13mph
Humidity: 82%   Direction: 280°W
Pressure: 30.18"   Gusts: NA
Location:  52.51°N, 1°E
Report Text: EGSH 220950Z 28011KT 9999 SCT030 11/08 Q1022 NOSIG
Loading
Personal Weather Stations






























Interactive Weather Map
Tropical Storm Tracking
New forecast layout! Learn more

10-Day Weather Forecast

Advertisements
Track Severe Weather on mobile